Time;durP1;ratioP1;P1;durP2;ratioP2;P2;SDS_P1;SDS_P2;PMS_P1;PMS_P2;Temp;Humidity;BMP_temperature;BMP_pressure;BME280_temperature;BME280_humidity;BME280_pressure;Samples;Min_cycle;Max_cycle;Signal;HPM_P1;HPM_P2
2022/09/23 00:02:39;;;;;;;3.80;2.20;;;10.20;99.90;;;;;;10477057;28;20280;-70
2022/09/23 00:07:40;;;;;;;4.47;1.93;;;10.10;99.90;;;;;;10477755;28;20265;-71
2022/09/23 00:12:43;;;;;;;2.83;1.77;;;10.00;99.90;;;;;;10470644;28;20578;-70
2022/09/23 00:17:44;;;;;;;2.90;2.40;;;9.90;99.90;;;;;;10477347;28;20239;-71
2022/09/23 00:22:45;;;;;;;3.33;2.17;;;9.90;99.90;;;;;;10479331;28;20258;-70
2022/09/23 00:27:45;;;;;;;3.80;2.30;;;9.80;99.90;;;;;;10472155;28;20630;-70
2022/09/23 00:32:46;;;;;;;2.40;2.20;;;9.80;99.90;;;;;;10467834;28;20216;-69
2022/09/23 00:37:46;;;;;;;5.00;2.73;;;9.70;99.90;;;;;;10483574;28;20221;-69
2022/09/23 00:42:50;;;;;;;3.40;2.50;;;9.70;99.90;;;;;;10481181;28;20223;-70
2022/09/23 00:48:00;;;;;;;2.10;2.00;;;9.60;99.90;;;;;;10485547;28;20219;-70
2022/09/23 00:53:04;;;;;;;6.57;2.43;;;9.60;99.90;;;;;;10478545;28;20223;-69
2022/09/23 00:58:09;;;;;;;3.47;2.20;;;9.50;99.90;;;;;;10473088;28;20232;-68
2022/09/23 01:03:10;;;;;;;2.97;2.00;;;9.50;99.90;;;;;;10481060;28;20219;-70
2022/09/23 01:08:13;;;;;;;2.60;2.40;;;9.40;99.90;;;;;;10474036;28;20226;-71
2022/09/23 01:13:39;;;;;;;4.40;2.33;;;9.40;99.90;;;;;;10479768;28;20219;-69
2022/09/23 01:18:49;;;;;;;4.33;2.47;;;9.30;99.90;;;;;;10478070;28;20815;-69
2022/09/23 01:24:21;;;;;;;3.23;2.53;;;9.30;99.90;;;;;;10477019;28;20211;-69
2022/09/23 01:29:32;;;;;;;3.07;2.77;;;9.30;99.90;;;;;;10474332;28;20317;-69
2022/09/23 01:34:40;;;;;;;5.63;2.40;;;9.30;99.90;;;;;;10486299;28;21004;-69
2022/09/23 01:39:48;;;;;;;3.10;2.73;;;9.20;99.90;;;;;;10472659;28;20689;-69
2022/09/23 01:45:00;;;;;;;3.07;2.47;;;9.20;99.90;;;;;;10471585;28;20260;-69
2022/09/23 01:55:36;;;;;;;3.90;2.60;;;9.10;99.90;;;;;;10480128;28;20254;-71
2022/09/23 02:00:48;;;;;;;4.23;2.67;;;9.10;99.90;;;;;;10472646;28;20231;-70
2022/09/23 02:06:06;;;;;;;3.13;2.60;;;9.00;99.90;;;;;;10475127;28;20212;-70
2022/09/23 02:11:09;;;;;;;3.80;2.93;;;8.90;99.90;;;;;;10490122;28;20297;-71
2022/09/23 02:16:25;;;;;;;4.53;3.40;;;8.90;99.90;;;;;;10462059;28;20231;-70
2022/09/23 02:21:32;;;;;;;3.77;2.90;;;8.80;99.90;;;;;;10470628;28;20230;-70
2022/09/23 02:26:47;;;;;;;5.83;3.57;;;8.70;99.90;;;;;;10488285;28;20223;-70
2022/09/23 02:31:54;;;;;;;4.27;3.20;;;8.70;99.90;;;;;;10468043;28;20221;-69
2022/09/23 02:37:10;;;;;;;3.87;3.37;;;8.60;99.90;;;;;;10476794;28;20313;-71
2022/09/23 02:42:19;;;;;;;6.33;3.33;;;8.60;99.90;;;;;;10466777;28;20300;-71
2022/09/23 02:47:23;;;;;;;5.03;3.40;;;8.50;99.90;;;;;;10459347;28;20296;-70
2022/09/23 02:52:24;;;;;;;5.17;4.03;;;8.60;99.90;;;;;;10466991;28;20223;-71
2022/09/23 02:57:27;;;;;;;5.17;3.57;;;8.50;99.90;;;;;;10476755;28;20219;-71
2022/09/23 03:02:48;;;;;;;5.20;3.90;;;8.50;99.90;;;;;;10459378;28;20321;-70
2022/09/23 03:08:06;;;;;;;6.50;4.20;;;8.50;99.90;;;;;;10472862;28;20285;-69
2022/09/23 03:13:16;;;;;;;4.03;3.40;;;8.50;99.90;;;;;;10473790;28;20221;-72
2022/09/23 03:18:30;;;;;;;5.83;3.90;;;8.40;99.90;;;;;;10473986;28;20214;-68
2022/09/23 03:23:39;;;;;;;6.13;3.97;;;8.40;99.90;;;;;;10469241;28;20218;-70
2022/09/23 03:28:43;;;;;;;8.07;4.00;;;8.40;99.90;;;;;;10473468;28;20230;-69
2022/09/23 03:33:51;;;;;;;8.40;3.87;;;8.30;99.90;;;;;;10476504;28;20733;-71
2022/09/23 03:39:07;;;;;;;5.57;3.60;;;8.30;99.90;;;;;;10483061;28;20242;-70
2022/09/23 03:44:09;;;;;;;4.03;3.40;;;8.20;99.90;;;;;;10473990;28;20223;-72
2022/09/23 03:49:16;;;;;;;6.43;3.80;;;8.20;99.90;;;;;;10459518;28;20699;-71
2022/09/23 03:54:18;;;;;;;7.27;4.03;;;8.20;99.90;;;;;;10481015;28;20233;-71
2022/09/23 03:59:19;;;;;;;6.27;3.70;;;8.10;99.90;;;;;;10467724;28;20228;-70
2022/09/23 04:04:19;;;;;;;5.60;3.67;;;8.20;99.90;;;;;;10458236;28;20302;-72
2022/09/23 04:09:23;;;;;;;4.00;3.30;;;8.20;99.90;;;;;;10475553;28;20813;-67
2022/09/23 04:14:24;;;;;;;5.10;3.53;;;8.20;99.90;;;;;;10467674;28;20246;-69
2022/09/23 04:19:25;;;;;;;4.83;3.50;;;8.10;99.90;;;;;;10465402;28;20674;-69
2022/09/23 04:24:25;;;;;;;4.70;3.50;;;8.10;99.90;;;;;;10481507;28;20744;-70
2022/09/23 04:29:26;;;;;;;5.57;3.97;;;8.10;99.90;;;;;;10474724;28;20257;-69
2022/09/23 04:34:27;;;;;;;5.60;3.50;;;8.00;99.90;;;;;;10493763;28;20222;-71
2022/09/23 04:39:27;;;;;;;3.63;3.20;;;8.00;99.90;;;;;;10483045;28;20225;-69
2022/09/23 04:44:28;;;;;;;4.47;3.80;;;8.00;99.90;;;;;;10479539;28;20225;-70
2022/09/23 04:49:32;;;;;;;5.07;3.30;;;8.00;99.90;;;;;;10471096;28;20219;-68
2022/09/23 04:54:33;;;;;;;6.93;3.63;;;8.00;99.90;;;;;;10463687;28;20705;-67
2022/09/23 04:59:34;;;;;;;5.20;3.77;;;8.00;99.90;;;;;;10473555;28;20218;-68
2022/09/23 05:04:36;;;;;;;4.57;3.60;;;8.10;99.90;;;;;;10478909;28;20226;-68
2022/09/23 05:09:37;;;;;;;7.60;3.87;;;8.10;99.90;;;;;;10474534;28;20234;-71
2022/09/23 05:14:37;;;;;;;4.60;3.60;;;8.10;99.90;;;;;;10495024;28;20223;-69
2022/09/23 05:19:38;;;;;;;9.40;3.47;;;8.00;99.90;;;;;;10464000;28;20678;-72
2022/09/23 05:24:39;;;;;;;6.37;3.37;;;8.00;99.90;;;;;;10462623;28;20634;-71
2022/09/23 05:29:39;;;;;;;25.23;6.53;;;7.90;99.90;;;;;;10477210;28;20769;-69
2022/09/23 05:34:40;;;;;;;7.53;3.60;;;7.90;99.90;;;;;;10472502;28;20344;-70
2022/09/23 05:39:41;;;;;;;5.67;3.60;;;8.10;99.90;;;;;;10494105;28;20215;-71
2022/09/23 05:44:41;;;;;;;6.17;3.63;;;8.20;99.90;;;;;;10465164;28;20317;-70
2022/09/23 05:49:44;;;;;;;4.13;3.53;;;8.50;99.90;;;;;;10476498;28;20248;-70
2022/09/23 05:54:45;;;;;;;4.67;3.77;;;8.90;99.90;;;;;;10478471;28;20336;-72
2022/09/23 05:59:46;;;;;;;7.60;3.43;;;9.30;99.90;;;;;;10466202;28;20326;-70
2022/09/23 06:04:47;;;;;;;4.37;3.40;;;9.70;99.90;;;;;;10462646;28;20231;-70
2022/09/23 06:09:47;;;;;;;5.50;3.53;;;10.00;99.90;;;;;;10464355;28;20739;-70
2022/09/23 06:14:49;;;;;;;5.00;3.50;;;10.30;99.90;;;;;;10474493;28;20233;-72
2022/09/23 06:19:50;;;;;;;4.13;3.40;;;10.60;99.90;;;;;;10473980;28;20710;-71
2022/09/23 06:24:50;;;;;;;6.57;3.23;;;10.80;99.90;;;;;;10469134;28;20305;-70
2022/09/23 06:29:51;;;;;;;5.03;3.20;;;11.00;99.90;;;;;;10455777;28;20595;-71
2022/09/23 06:34:51;;;;;;;6.30;3.47;;;11.20;99.90;;;;;;10476575;28;20234;-72
2022/09/23 06:39:53;;;;;;;4.50;3.50;;;11.40;99.90;;;;;;10473728;28;20266;-71
2022/09/23 06:44:54;;;;;;;6.70;4.03;;;11.70;99.90;;;;;;10473298;28;20231;-72
2022/09/23 06:49:54;;;;;;;4.63;3.63;;;12.00;99.90;;;;;;10483050;28;20588;-71
2022/09/23 06:54:55;;;;;;;6.20;3.40;;;12.20;99.90;;;;;;10463775;28;20223;-71
2022/09/23 06:59:58;;;;;;;5.10;3.53;;;12.40;99.90;;;;;;10467533;28;20641;-71
2022/09/23 07:04:59;;;;;;;6.77;3.67;;;12.60;99.90;;;;;;10476830;28;20225;-71
2022/09/23 07:10:00;;;;;;;4.87;3.40;;;12.90;99.90;;;;;;10485435;28;20231;-71
2022/09/23 07:15:00;;;;;;;6.80;3.67;;;13.30;99.90;;;;;;10471546;28;20587;-70
2022/09/23 07:20:01;;;;;;;7.37;3.93;;;13.60;99.90;;;;;;10474199;28;20326;-72
2022/09/23 07:25:02;;;;;;;5.43;3.70;;;14.00;99.90;;;;;;10470358;28;20567;-71
2022/09/23 07:30:04;;;;;;;9.47;4.30;;;14.50;99.90;;;;;;10464443;28;20221;-70
2022/09/23 07:35:05;;;;;;;7.60;4.07;;;15.30;99.90;;;;;;10470013;28;20229;-71
2022/09/23 07:40:08;;;;;;;8.07;4.20;;;16.30;99.90;;;;;;10473191;28;20835;-73
2022/09/23 07:45:08;;;;;;;4.83;3.50;;;17.50;99.90;;;;;;10468512;28;20198;-71
2022/09/23 07:50:12;;;;;;;6.90;3.40;;;19.20;99.90;;;;;;10469043;28;20687;-71
2022/09/23 07:55:13;;;;;;;4.70;3.17;;;20.70;97.30;;;;;;10476267;28;20218;-70
2022/09/23 08:00:14;;;;;;;5.43;3.07;;;22.50;90.40;;;;;;10475594;28;20207;-71
2022/09/23 08:05:15;;;;;;;6.77;2.80;;;24.00;77.70;;;;;;10481798;28;20538;-72
2022/09/23 08:10:19;;;;;;;5.67;2.80;;;24.80;65.50;;;;;;10476355;28;20223;-72
2022/09/23 08:15:21;;;;;;;4.13;3.27;;;25.30;60.50;;;;;;10482171;28;20665;-72
2022/09/23 08:25:45;;;;;;;3.97;2.67;;;26.50;56.50;;;;;;10484025;28;20226;-72
2022/09/23 08:30:47;;;;;;;6.40;2.63;;;27.30;52.50;;;;;;10484816;28;20310;-71
2022/09/23 08:35:48;;;;;;;4.97;3.07;;;28.50;49.50;;;;;;10477965;28;20568;-72
2022/09/23 08:40:49;;;;;;;6.10;2.80;;;30.20;45.10;;;;;;10475750;28;20207;-72
2022/09/23 08:45:52;;;;;;;3.47;2.50;;;31.50;40.90;;;;;;10480959;28;20319;-72
2022/09/23 08:51:01;;;;;;;5.10;2.70;;;31.80;39.30;;;;;;10477050;28;20283;-72
2022/09/23 08:56:16;;;;;;;3.80;2.87;;;32.20;37.60;;;;;;10481187;28;20225;-72
2022/09/23 09:01:34;;;;;;;2.73;2.50;;;32.90;36.30;;;;;;10480475;28;20285;-73
2022/09/23 09:06:56;;;;;;;2.70;2.13;;;32.80;34.80;;;;;;10474212;28;20227;-72
2022/09/23 09:12:20;;;;;;;2.80;2.10;;;32.90;34.80;;;;;;10475875;28;20271;-71
2022/09/23 09:17:47;;;;;;;3.40;2.20;;;33.00;33.90;;;;;;10480475;28;20686;-72
2022/09/23 09:23:00;;;;;;;2.30;2.10;;;33.20;34.20;;;;;;10475190;28;20219;-72
2022/09/23 09:28:09;;;;;;;3.23;1.87;;;34.20;32.90;;;;;;10480165;28;20227;-71
2022/09/23 09:33:16;;;;;;;3.27;2.20;;;34.30;33.00;;;;;;10473519;28;20722;-73
2022/09/23 09:38:18;;;;;;;3.10;2.00;;;34.20;32.70;;;;;;10486792;28;20307;-72
2022/09/23 09:43:22;;;;;;;2.60;2.03;;;35.40;32.00;;;;;;10478245;28;20583;-73
2022/09/23 09:48:36;;;;;;;3.37;2.30;;;35.50;31.40;;;;;;10466685;28;20671;-72
2022/09/23 09:53:37;;;;;;;3.17;1.93;;;36.30;31.10;;;;;;10453507;28;20299;-73
2022/09/23 09:59:00;;;;;;;6.83;2.50;;;36.30;30.50;;;;;;10472558;28;20941;-73
2022/09/23 10:04:04;;;;;;;11.53;2.37;;;36.00;31.00;;;;;;10473134;28;20232;-73
2022/09/23 10:09:07;;;;;;;5.13;2.17;;;36.10;31.10;;;;;;10476044;28;20222;-73
2022/09/23 10:14:16;;;;;;;4.43;2.07;;;36.00;30.40;;;;;;10471168;28;20610;-72
2022/09/23 10:19:29;;;;;;;2.27;1.90;;;36.50;30.00;;;;;;10482091;28;20688;-73
2022/09/23 10:24:35;;;;;;;1.97;1.80;;;36.80;29.00;;;;;;10452365;28;20618;-73
2022/09/23 10:29:39;;;;;;;3.33;1.80;;;34.90;30.60;;;;;;10476267;28;20692;-72
2022/09/23 10:34:47;;;;;;;2.73;2.20;;;36.40;30.40;;;;;;10480580;28;20306;-72
2022/09/23 10:50:45;;;;;;;4.90;2.33;;;38.70;27.90;;;;;;10464370;28;20307;-71
2022/09/23 10:56:01;;;;;;;2.73;2.10;;;38.50;28.10;;;;;;10474105;28;20276;-72
2022/09/23 11:01:29;;;;;;;9.40;2.70;;;37.10;29.20;;;;;;10480206;28;20625;-72
2022/09/23 11:06:59;;;;;;;6.00;1.93;;;36.70;29.30;;;;;;10468800;28;20224;-73
2022/09/23 11:12:37;;;;;;;4.23;2.03;;;36.80;28.70;;;;;;10478216;28;20207;-72
2022/09/23 11:17:59;;;;;;;4.30;2.30;;;35.30;29.60;;;;;;10463830;28;20245;-72
2022/09/23 11:23:08;;;;;;;4.53;2.50;;;31.60;34.00;;;;;;10472740;28;20249;-72
2022/09/23 11:28:49;;;;;;;2.53;2.33;;;28.20;39.20;;;;;;10467101;28;20207;-72
2022/09/23 11:33:59;;;;;;;3.23;2.43;;;25.90;44.30;;;;;;10461310;28;20222;-71
2022/09/23 11:39:06;;;;;;;4.47;2.40;;;24.80;46.10;;;;;;10481952;28;20203;-71
2022/09/23 11:44:22;;;;;;;4.53;2.57;;;24.00;48.00;;;;;;10495589;28;20220;-72
2022/09/23 11:49:48;;;;;;;5.87;2.90;;;23.30;50.30;;;;;;10474520;28;20218;-74
2022/09/23 11:54:56;;;;;;;5.73;2.63;;;22.80;51.40;;;;;;10478844;28;20219;-71
2022/09/23 12:00:02;;;;;;;4.93;2.70;;;22.60;52.80;;;;;;10462049;28;20751;-72
2022/09/23 12:05:13;;;;;;;3.73;3.03;;;22.50;53.90;;;;;;10471920;28;20261;-71
2022/09/23 12:10:14;;;;;;;2.97;2.70;;;22.20;54.60;;;;;;10476184;28;20215;-71
2022/09/23 12:15:40;;;;;;;5.67;2.90;;;22.10;55.40;;;;;;10469148;28;20183;-72
2022/09/23 12:20:44;;;;;;;5.97;2.60;;;22.00;55.70;;;;;;10476027;28;20219;-71
2022/09/23 12:25:47;;;;;;;4.90;2.83;;;22.20;55.60;;;;;;10474994;28;20250;-72
2022/09/23 12:30:50;;;;;;;3.50;2.90;;;22.20;55.90;;;;;;10478783;28;20223;-71
2022/09/23 12:36:02;;;;;;;5.87;2.77;;;22.30;55.50;;;;;;10464715;28;20748;-72
2022/09/23 12:41:22;;;;;;;6.30;3.20;;;22.30;55.00;;;;;;10467701;28;20272;-72
2022/09/23 12:46:26;;;;;;;4.97;2.87;;;22.30;55.40;;;;;;10492437;28;20227;-72
2022/09/23 12:51:29;;;;;;;5.13;2.80;;;22.20;55.10;;;;;;10481050;28;20721;-72
2022/09/23 12:56:38;;;;;;;2.97;2.40;;;22.20;55.80;;;;;;10482808;28;20726;-73
2022/09/23 13:01:39;;;;;;;4.13;2.47;;;22.20;55.20;;;;;;10474027;28;20231;-72
2022/09/23 13:07:07;;;;;;;4.50;2.93;;;22.20;55.50;;;;;;10495749;28;20705;-73
2022/09/23 13:12:30;;;;;;;5.23;2.87;;;22.00;56.10;;;;;;10470054;28;20219;-73
2022/09/23 13:17:35;;;;;;;5.60;2.73;;;22.10;56.40;;;;;;10463920;28;20222;-74
2022/09/23 13:22:58;;;;;;;4.67;3.10;;;22.20;56.20;;;;;;10475304;28;20220;-72
2022/09/23 13:28:25;;;;;;;2.70;2.47;;;22.10;56.70;;;;;;10484385;28;20636;-72
2022/09/23 13:33:38;;;;;;;4.30;3.00;;;21.80;57.10;;;;;;10472945;28;20585;-71
2022/09/23 13:38:40;;;;;;;4.07;3.10;;;21.60;57.70;;;;;;10471792;28;20636;-72
2022/09/23 13:43:42;;;;;;;5.73;3.47;;;21.40;57.40;;;;;;10472058;28;20231;-72
2022/09/23 13:48:45;;;;;;;7.57;4.53;;;21.30;58.50;;;;;;10488579;28;20215;-73
2022/09/23 13:53:55;;;;;;;6.27;3.50;;;21.40;58.30;;;;;;10485318;28;20220;-71
2022/09/23 13:59:40;;;;;;;4.00;3.20;;;21.50;57.80;;;;;;10475567;28;20219;-73
2022/09/23 14:04:40;;;;;;;8.33;3.70;;;21.80;58.20;;;;;;10406005;28;20227;-72
2022/09/23 14:09:43;;;;;;;3.40;2.70;;;22.00;57.00;;;;;;10467240;28;20766;-73
2022/09/23 14:14:45;;;;;;;5.57;2.90;;;22.00;55.50;;;;;;10479411;28;20211;-72
2022/09/23 14:19:46;;;;;;;2.67;2.47;;;22.00;56.30;;;;;;10465832;28;20212;-71
2022/09/23 14:24:48;;;;;;;3.67;2.53;;;21.70;56.30;;;;;;10464024;28;20368;-71
2022/09/23 14:29:49;;;;;;;4.67;2.60;;;21.40;57.10;;;;;;10465957;28;20207;-72
2022/09/23 14:34:59;;;;;;;5.77;3.10;;;21.30;58.40;;;;;;10491848;28;20223;-72
2022/09/23 14:40:04;;;;;;;4.73;2.63;;;21.30;58.60;;;;;;10487103;28;20231;-70
2022/09/23 14:45:06;;;;;;;3.97;2.80;;;21.30;59.00;;;;;;10472801;28;20227;-72
2022/09/23 14:50:35;;;;;;;4.80;3.10;;;21.20;58.90;;;;;;10471089;28;20188;-71
2022/09/23 14:55:36;;;;;;;3.70;2.50;;;21.20;58.50;;;;;;10489853;28;20789;-72
2022/09/23 15:00:36;;;;;;;3.57;2.33;;;20.90;60.60;;;;;;10489073;28;20230;-71
2022/09/23 15:05:41;;;;;;;5.97;3.23;;;20.60;60.70;;;;;;10471267;28;20244;-71
2022/09/23 15:10:42;;;;;;;4.17;2.50;;;20.40;62.30;;;;;;10483158;28;20220;-72
2022/09/23 15:15:46;;;;;;;6.40;2.50;;;20.10;61.90;;;;;;10483028;28;20709;-73
2022/09/23 15:21:13;;;;;;;7.23;3.03;;;19.90;63.90;;;;;;10464486;28;20705;-72
2022/09/23 15:26:19;;;;;;;7.10;2.30;;;19.80;64.50;;;;;;10469639;28;20226;-71
2022/09/23 15:31:25;;;;;;;5.30;2.87;;;19.70;65.00;;;;;;10469306;28;20216;-71
2022/09/23 15:36:27;;;;;;;3.83;2.60;;;19.70;65.20;;;;;;10489726;28;20218;-72
2022/09/23 15:41:29;;;;;;;4.70;2.57;;;19.70;65.60;;;;;;10484052;28;20681;-72
2022/09/23 15:46:32;;;;;;;4.60;2.70;;;19.60;65.90;;;;;;10480543;28;20662;-71
2022/09/23 15:51:34;;;;;;;6.37;2.80;;;19.60;67.20;;;;;;10466683;28;20322;-71
2022/09/23 15:56:34;;;;;;;4.97;2.67;;;19.40;67.90;;;;;;10478882;28;20215;-71
2022/09/23 16:01:35;;;;;;;4.27;2.87;;;19.30;68.80;;;;;;10464014;28;20745;-71
2022/09/23 16:06:36;;;;;;;3.80;2.60;;;19.20;69.80;;;;;;10476697;28;20246;-72
2022/09/23 16:11:43;;;;;;;3.13;2.10;;;19.10;71.50;;;;;;10468263;28;20230;-71
2022/09/23 16:16:46;;;;;;;4.77;2.60;;;19.00;72.40;;;;;;10472035;28;20227;-72
2022/09/23 16:21:46;;;;;;;4.90;2.80;;;18.90;73.00;;;;;;10497185;28;20226;-72
2022/09/23 16:26:47;;;;;;;5.20;2.87;;;18.70;75.20;;;;;;10473025;28;20227;-72
2022/09/23 16:31:48;;;;;;;4.43;3.00;;;18.60;75.70;;;;;;10484260;28;20224;-71
2022/09/23 16:36:48;;;;;;;5.23;2.90;;;18.50;76.90;;;;;;10491590;28;20229;-73
2022/09/23 16:41:49;;;;;;;6.33;3.13;;;18.30;78.00;;;;;;10467307;28;20237;-70
2022/09/23 16:46:49;;;;;;;3.33;2.70;;;18.20;79.50;;;;;;10482666;28;20267;-76
2022/09/23 16:51:50;;;;;;;4.70;3.30;;;18.00;81.30;;;;;;10470423;28;20756;-75
2022/09/23 16:56:51;;;;;;;5.20;3.10;;;17.80;83.50;;;;;;10473777;28;20217;-75
2022/09/23 17:07:11;;;;;;;7.00;3.57;;;17.50;88.10;;;;;;10498570;28;20248;-74
2022/09/23 17:12:44;;;;;;;7.40;3.93;;;17.30;90.50;;;;;;10486153;28;20221;-76
2022/09/23 17:17:45;;;;;;;6.27;3.70;;;17.10;92.50;;;;;;10434127;28;20222;-75
2022/09/23 17:22:45;;;;;;;7.30;3.90;;;17.00;94.80;;;;;;10485211;28;20222;-75
2022/09/23 17:27:47;;;;;;;6.77;3.43;;;16.80;97.90;;;;;;10469344;28;20209;-75
2022/09/23 17:32:48;;;;;;;10.77;4.23;;;16.70;99.90;;;;;;10503250;28;20213;-74
2022/09/23 17:37:49;;;;;;;6.30;3.90;;;16.60;99.90;;;;;;10461112;28;20293;-75
2022/09/23 17:42:52;;;;;;;7.33;4.50;;;16.50;99.90;;;;;;10464166;28;20306;-73
2022/09/23 17:47:53;;;;;;;5.40;3.50;;;16.40;99.90;;;;;;10472780;28;20250;-75
2022/09/23 17:52:59;;;;;;;5.77;4.00;;;16.20;99.90;;;;;;10474783;28;20222;-74
2022/09/23 17:58:02;;;;;;;7.47;4.93;;;16.10;99.90;;;;;;10462089;28;20211;-74
2022/09/23 18:03:03;;;;;;;7.97;5.10;;;16.00;99.90;;;;;;10466415;28;20226;-73
2022/09/23 18:08:04;;;;;;;5.27;4.73;;;15.90;99.90;;;;;;10486552;28;20222;-73
2022/09/23 18:13:08;;;;;;;8.40;5.27;;;15.90;99.90;;;;;;10480691;28;20233;-74
2022/09/23 18:18:09;;;;;;;7.87;5.63;;;15.80;99.90;;;;;;10484723;28;20296;-73
2022/09/23 18:23:10;;;;;;;8.17;5.33;;;15.80;99.90;;;;;;10471817;28;21024;-75
2022/09/23 18:28:10;;;;;;;8.37;5.93;;;15.70;99.90;;;;;;10468516;28;20215;-74
2022/09/23 18:33:14;;;;;;;8.13;6.30;;;15.70;99.90;;;;;;10480614;28;20213;-76
2022/09/23 18:38:15;;;;;;;16.03;9.10;;;15.60;99.90;;;;;;10478292;28;20228;-73
2022/09/23 18:43:15;;;;;;;21.00;12.03;;;15.60;99.90;;;;;;10464908;28;20321;-75
2022/09/23 18:53:39;;;;;;;16.33;7.90;;;15.60;99.90;;;;;;10474601;28;21080;-73
2022/09/23 18:58:47;;;;;;;12.50;8.17;;;15.50;99.90;;;;;;10484713;28;20689;-74
2022/09/23 19:03:53;;;;;;;11.07;6.67;;;15.40;99.90;;;;;;10462408;28;20229;-74
2022/09/23 19:08:54;;;;;;;13.03;6.97;;;15.30;99.90;;;;;;10494212;28;20253;-74
2022/09/23 19:14:02;;;;;;;10.50;6.17;;;15.20;99.90;;;;;;10472362;28;20265;-74
2022/09/23 19:19:04;;;;;;;9.57;6.67;;;15.10;99.90;;;;;;10488580;28;20214;-74
2022/09/23 19:24:06;;;;;;;8.97;6.50;;;15.10;99.90;;;;;;10483115;28;20372;-70
2022/09/23 19:29:12;;;;;;;11.00;6.30;;;15.00;99.90;;;;;;10485360;28;20222;-71
2022/09/23 19:34:18;;;;;;;9.07;6.80;;;15.00;99.90;;;;;;10480017;28;20715;-72
2022/09/23 19:39:21;;;;;;;9.17;7.17;;;14.90;99.90;;;;;;10486946;28;20216;-72
2022/09/23 19:44:25;;;;;;;9.13;7.10;;;14.90;99.90;;;;;;10475901;28;20226;-72
2022/09/23 19:49:26;;;;;;;15.57;8.60;;;14.80;99.90;;;;;;10462065;28;20799;-71
2022/09/23 19:54:26;;;;;;;14.87;10.80;;;14.80;99.90;;;;;;10490465;28;20351;-71
2022/09/23 19:59:27;;;;;;;14.53;10.10;;;14.80;99.90;;;;;;10482693;28;20651;-72
2022/09/23 20:04:27;;;;;;;13.53;8.83;;;14.70;99.90;;;;;;10473602;28;20704;-71
2022/09/23 20:09:28;;;;;;;11.67;8.13;;;14.60;99.90;;;;;;10490686;28;20306;-72
2022/09/23 20:14:30;;;;;;;10.23;7.83;;;14.60;99.90;;;;;;10482071;28;20313;-72
2022/09/23 20:19:30;;;;;;;11.40;8.30;;;14.50;99.90;;;;;;10496789;28;20305;-71
2022/09/23 20:24:31;;;;;;;13.37;9.03;;;14.40;99.90;;;;;;10490688;28;20316;-72
2022/09/23 20:29:33;;;;;;;12.30;8.27;;;14.20;99.90;;;;;;10478948;28;20219;-73
2022/09/23 20:34:33;;;;;;;14.80;8.83;;;14.20;99.90;;;;;;10476680;28;20238;-72
2022/09/23 20:39:34;;;;;;;11.20;7.20;;;14.10;99.90;;;;;;10483228;28;20219;-70
2022/09/23 20:44:34;;;;;;;12.03;8.07;;;14.10;99.90;;;;;;10484370;28;20231;-72
2022/09/23 20:49:36;;;;;;;9.53;7.53;;;14.10;99.90;;;;;;10482128;28;20226;-70
2022/09/23 20:54:37;;;;;;;13.63;7.77;;;14.10;99.90;;;;;;10486213;28;20246;-71
2022/09/23 20:59:39;;;;;;;11.50;7.20;;;14.00;99.90;;;;;;10485811;28;20229;-72
2022/09/23 21:04:40;;;;;;;10.90;7.80;;;13.90;99.90;;;;;;10491984;28;20227;-72
2022/09/23 21:09:40;;;;;;;11.27;7.17;;;13.80;99.90;;;;;;10480857;28;20587;-72
2022/09/23 21:14:42;;;;;;;10.20;7.30;;;13.60;99.90;;;;;;10475518;28;20577;-72
2022/09/23 21:19:43;;;;;;;11.10;6.70;;;13.60;99.90;;;;;;10481218;28;20217;-71
2022/09/23 21:24:48;;;;;;;9.83;7.73;;;13.40;99.90;;;;;;10475283;28;20215;-71
2022/09/23 21:29:48;;;;;;;10.63;7.70;;;13.40;99.90;;;;;;10475527;28;20215;-71
2022/09/23 21:34:49;;;;;;;10.47;7.03;;;13.30;99.90;;;;;;10490566;28;20694;-72
2022/09/23 21:45:12;;;;;;;8.70;7.15;;;13.40;99.90;;;;;;10489033;28;20469;-73
2022/09/23 21:50:17;;;;;;;10.17;6.20;;;13.40;99.90;;;;;;10472659;28;20277;-74
2022/09/23 21:55:17;;;;;;;7.97;5.83;;;13.40;99.90;;;;;;10469586;28;20198;-75
2022/09/23 22:00:18;;;;;;;9.17;6.20;;;13.40;99.90;;;;;;10462313;28;20590;-73
2022/09/23 22:05:19;;;;;;;10.03;6.80;;;13.40;99.90;;;;;;10479972;28;20212;-71
2022/09/23 22:10:19;;;;;;;9.50;6.20;;;13.40;99.90;;;;;;10469309;28;20560;-73
2022/09/23 22:15:20;;;;;;;8.30;5.83;;;13.30;99.90;;;;;;10486606;28;20197;-73
2022/09/23 22:20:20;;;;;;;9.27;5.70;;;13.30;99.90;;;;;;10479789;28;20187;-73
2022/09/23 22:25:21;;;;;;;8.63;5.20;;;13.30;99.90;;;;;;10468329;28;20207;-74
2022/09/23 22:35:45;;;;;;;6.03;4.27;;;13.30;99.90;;;;;;10474941;28;20211;-73
2022/09/23 22:40:45;;;;;;;7.30;4.70;;;13.30;99.90;;;;;;10486441;28;20645;-73
2022/09/23 22:45:50;;;;;;;6.60;4.47;;;13.20;99.90;;;;;;10469764;28;20314;-74
2022/09/23 22:50:51;;;;;;;5.60;4.70;;;13.20;99.90;;;;;;10484886;28;20235;-74
2022/09/23 22:56:00;;;;;;;4.17;3.70;;;13.20;99.90;;;;;;10474383;28;20239;-74
2022/09/23 23:01:04;;;;;;;6.67;3.73;;;13.20;99.90;;;;;;10481150;28;20299;-71
2022/09/23 23:06:05;;;;;;;6.10;4.07;;;13.10;99.90;;;;;;10461862;28;20928;-72
2022/09/23 23:11:13;;;;;;;4.10;3.60;;;13.10;99.90;;;;;;10467254;28;20219;-72
2022/09/23 23:16:14;;;;;;;4.20;3.80;;;13.00;99.90;;;;;;10480892;28;20265;-73
2022/09/23 23:21:17;;;;;;;6.47;4.27;;;13.00;99.90;;;;;;10478857;28;20219;-74
2022/09/23 23:26:22;;;;;;;5.20;4.00;;;12.90;99.90;;;;;;10475481;28;20223;-73
2022/09/23 23:31:27;;;;;;;6.20;4.10;;;12.90;99.90;;;;;;10459195;28;20273;-73
2022/09/23 23:36:30;;;;;;;7.13;3.90;;;12.80;99.90;;;;;;10451063;28;20235;-75
2022/09/23 23:41:31;;;;;;;6.90;4.20;;;12.80;99.90;;;;;;10476796;28;20258;-75
2022/09/23 23:46:32;;;;;;;4.90;4.00;;;12.70;99.90;;;;;;10454077;28;20322;-76
2022/09/23 23:51:32;;;;;;;4.43;3.70;;;12.80;99.90;;;;;;10469510;28;20228;-74
2022/09/23 23:56:33;;;;;;;4.80;4.30;;;12.80;99.90;;;;;;10465892;28;20305;-74
